createdAt,value
2019-04-07T00:00:19.828Z,82.93
2019-04-07T00:01:19.395Z,82.73
2019-04-07T00:02:19.869Z,82.42
2019-04-07T00:03:19.586Z,81.85
2019-04-07T00:04:19.157Z,82.42
2019-04-07T00:05:19.602Z,81.74
2019-04-07T00:06:19.130Z,82.87
2019-04-07T00:07:19.590Z,82.26
2019-04-07T00:08:19.121Z,82.15
2019-04-07T00:09:19.106Z,82.87
2019-04-07T00:10:19.209Z,82.05
2019-04-07T00:11:19.594Z,82.56
2019-04-07T00:12:19.065Z,82.97
2019-04-07T00:13:19.066Z,83.49
2019-04-07T00:14:19.054Z,83.59
2019-04-07T00:15:19.028Z,84.20
2019-04-07T00:16:19.022Z,84.10
2019-04-07T00:17:19.223Z,82.81
2019-04-07T00:18:19.153Z,82.46
2019-04-07T00:19:18.993Z,83.53
2019-04-07T00:20:19.014Z,83.32
2019-04-07T00:21:18.966Z,82.60
2019-04-07T00:22:18.949Z,82.60
2019-04-07T00:23:18.948Z,83.73
2019-04-07T00:24:19.271Z,83.01
2019-04-07T00:25:19.318Z,83.01
2019-04-07T00:26:19.137Z,83.32
2019-04-07T00:27:19.064Z,83.01
2019-04-07T00:28:19.474Z,83.01
2019-04-07T00:29:19.493Z,82.50
2019-04-07T00:30:19.081Z,82.60
2019-04-07T00:31:19.394Z,82.70
2019-04-07T00:32:18.855Z,83.73
2019-04-07T00:33:19.170Z,83.73
2019-04-07T00:34:19.186Z,83.42
2019-04-07T00:35:26.559Z,83.01
2019-04-07T00:36:19.801Z,83.26
2019-04-07T00:37:18.782Z,83.73
2019-04-07T00:38:19.362Z,83.77
2019-04-07T00:39:19.102Z,83.83
2019-04-07T00:40:18.762Z,83.73
2019-04-07T00:41:18.744Z,83.56
2019-04-07T00:42:19.369Z,84.18
2019-04-07T00:43:18.819Z,83.83
2019-04-07T00:44:18.968Z,83.77
2019-04-07T00:45:19.107Z,83.77
2019-04-07T00:46:19.096Z,83.98
2019-04-07T00:47:18.727Z,83.87
2019-04-07T00:48:18.662Z,84.39
2019-04-07T00:49:19.237Z,84.18
2019-04-07T00:50:18.639Z,84.28
2019-04-07T00:51:18.790Z,84.18
2019-04-07T00:52:19.453Z,84.63
2019-04-07T00:53:18.806Z,84.90
2019-04-07T00:54:18.660Z,84.94
2019-04-07T00:55:18.792Z,84.80
2019-04-07T00:56:18.571Z,85.25
2019-04-07T00:57:18.585Z,85.21
2019-04-07T00:58:19.189Z,85.46
2019-04-07T00:59:18.540Z,85.25
2019-04-07T01:00:19.084Z,85.55
2019-04-07T01:01:18.516Z,85.76
2019-04-07T01:02:18.506Z,85.46
2019-04-07T01:03:18.514Z,85.35
2019-04-07T01:04:18.964Z,85.66
2019-04-07T01:05:18.481Z,85.97
2019-04-07T01:06:18.763Z,86.00
2019-04-07T01:07:19.135Z,86.27
2019-04-07T01:08:18.439Z,85.76
2019-04-07T01:09:18.751Z,86.11
2019-04-07T01:10:19.003Z,86.68
2019-04-07T01:11:18.943Z,86.99
2019-04-07T01:12:18.392Z,86.89
2019-04-07T01:13:18.382Z,85.97
2019-04-07T01:14:18.371Z,86.27
2019-04-07T01:15:18.643Z,87.10
2019-04-07T01:16:18.350Z,86.27
2019-04-07T01:17:19.062Z,86.07
2019-04-07T01:18:18.330Z,86.38
2019-04-07T01:19:18.884Z,86.07
2019-04-07T01:20:18.325Z,86.07
2019-04-07T01:21:18.291Z,86.17
2019-04-07T01:22:18.597Z,85.66
2019-04-07T01:23:18.280Z,86.27
2019-04-07T01:24:18.733Z,85.76
2019-04-07T01:25:18.257Z,87.30
2019-04-07T01:26:18.555Z,88.12
2019-04-07T01:27:18.301Z,87.30
2019-04-07T01:28:18.230Z,88.33
2019-04-07T01:29:18.479Z,88.23
2019-04-07T01:30:18.372Z,87.46
2019-04-07T01:31:18.783Z,87.30
2019-04-07T01:32:18.168Z,87.98
2019-04-07T01:33:18.160Z,88.12
2019-04-07T01:34:18.472Z,87.71
2019-04-07T01:35:18.166Z,88.39
2019-04-07T01:36:18.333Z,88.33
2019-04-07T01:37:18.690Z,87.46
2019-04-07T01:38:18.105Z,87.61
2019-04-07T01:39:18.326Z,87.67
2019-04-07T01:40:18.423Z,87.77
2019-04-07T01:41:18.613Z,87.77
2019-04-07T01:42:18.057Z,87.92
2019-04-07T01:43:18.046Z,87.61
2019-04-07T01:44:18.077Z,87.46
2019-04-07T01:45:18.121Z,87.46
2019-04-07T01:46:18.392Z,87.71
2019-04-07T01:47:18.005Z,87.10
2019-04-07T01:48:18.031Z,86.79
2019-04-07T01:49:18.407Z,87.30
2019-04-07T01:50:18.528Z,86.89
2019-04-07T01:51:18.441Z,86.38
2019-04-07T01:52:18.316Z,86.99
2019-04-07T01:53:18.017Z,87.10
2019-04-07T01:54:17.985Z,86.99
2019-04-07T01:55:18.082Z,87.71
2019-04-07T01:56:18.342Z,88.02
2019-04-07T01:57:18.435Z,86.89
2019-04-07T01:58:18.475Z,87.04
2019-04-07T01:59:17.902Z,87.13
2019-04-07T02:00:18.384Z,87.82
2019-04-07T02:01:18.320Z,87.55
2019-04-07T02:02:17.841Z,87.71
2019-04-07T02:03:17.825Z,87.85
2019-04-07T02:04:18.222Z,87.65
2019-04-07T02:05:17.874Z,87.04
2019-04-07T02:06:17.879Z,88.17
2019-04-07T02:07:18.307Z,87.55
2019-04-07T02:08:17.775Z,87.75
2019-04-07T02:09:18.302Z,87.45
2019-04-07T02:10:17.755Z,87.90
2019-04-07T02:11:17.748Z,87.65
2019-04-07T02:12:18.109Z,87.07
2019-04-07T02:13:17.712Z,87.79
2019-04-07T02:14:17.700Z,88.62
2019-04-07T02:15:18.511Z,87.96
2019-04-07T02:16:19.179Z,87.79
2019-04-07T02:17:17.679Z,88.00
2019-04-07T02:18:17.787Z,87.59
2019-04-07T02:19:18.226Z,88.20
2019-04-07T02:20:17.817Z,88.00
2019-04-07T02:21:17.626Z,87.69
2019-04-07T02:22:17.624Z,87.69
2019-04-07T02:23:17.608Z,87.79
2019-04-07T02:24:17.962Z,88.62
2019-04-07T02:25:17.585Z,87.84
2019-04-07T02:26:17.804Z,87.38
2019-04-07T02:27:17.991Z,87.49
2019-04-07T02:28:17.698Z,88.10
2019-04-07T02:29:18.064Z,88.45
2019-04-07T02:30:17.527Z,88.86
2019-04-07T02:31:17.527Z,88.14
2019-04-07T02:32:17.518Z,87.73
2019-04-07T02:33:18.114Z,88.92
2019-04-07T02:34:17.726Z,88.00
2019-04-07T02:35:17.467Z,88.51
2019-04-07T02:36:23.956Z,88.66
2019-04-07T02:37:19.243Z,88.41
2019-04-07T02:38:17.902Z,88.66
2019-04-07T02:39:18.318Z,88.56
2019-04-07T02:40:17.904Z,88.14
2019-04-07T02:41:17.834Z,88.04
2019-04-07T02:42:17.415Z,88.24
2019-04-07T02:43:17.948Z,88.35
2019-04-07T02:44:17.968Z,88.56
2019-04-07T02:45:17.354Z,88.14
2019-04-07T02:46:18.223Z,87.84
2019-04-07T02:47:18.126Z,87.94
2019-04-07T02:48:18.100Z,87.84
2019-04-07T02:49:17.895Z,87.94
2019-04-07T02:50:17.755Z,88.14
2019-04-07T02:51:17.955Z,88.96
2019-04-07T02:52:17.287Z,87.84
2019-04-07T02:53:17.265Z,88.66
2019-04-07T02:54:17.491Z,88.45
2019-04-07T02:55:17.268Z,87.84
2019-04-07T02:56:17.232Z,88.66
2019-04-07T02:57:17.234Z,88.96
2019-04-07T02:58:17.914Z,87.84
2019-04-07T02:59:17.202Z,88.10
2019-04-07T03:00:18.204Z,87.73
2019-04-07T03:01:18.022Z,88.14
2019-04-07T03:02:17.792Z,88.86
2019-04-07T03:03:18.635Z,88.66
2019-04-07T03:04:17.862Z,88.96
2019-04-07T03:05:17.136Z,88.86
2019-04-07T03:06:32.485Z,89.28
2019-04-07T03:07:18.113Z,88.41
2019-04-07T03:08:17.290Z,88.04
2019-04-07T03:09:17.094Z,88.14
2019-04-07T03:10:17.532Z,88.76
2019-04-07T03:11:18.032Z,88.76
2019-04-07T03:12:17.789Z,88.76
2019-04-07T03:13:17.052Z,88.56
2019-04-07T03:14:17.710Z,89.07
2019-04-07T03:15:17.193Z,88.45
2019-04-07T03:16:17.315Z,88.92
2019-04-07T03:17:17.125Z,88.76
2019-04-07T03:18:17.011Z,88.96
2019-04-07T03:19:17.075Z,88.82
2019-04-07T03:20:16.969Z,89.48
2019-04-07T03:21:17.081Z,89.54
2019-04-07T03:22:16.943Z,89.58
2019-04-07T03:23:16.948Z,89.28
2019-04-07T03:24:17.087Z,89.23
2019-04-07T03:25:17.295Z,89.23
2019-04-07T03:26:16.903Z,89.64
2019-04-07T03:27:17.850Z,89.54
2019-04-07T03:28:16.894Z,89.13
2019-04-07T03:29:16.872Z,89.23
2019-04-07T03:30:17.755Z,89.34
2019-04-07T03:31:17.795Z,88.31
2019-04-07T03:32:19.182Z,89.44
2019-04-07T03:33:21.245Z,89.58
2019-04-07T03:34:18.586Z,89.75
2019-04-07T03:35:19.865Z,89.54
2019-04-07T03:36:20.479Z,89.75
2019-04-07T03:37:30.549Z,89.44
2019-04-07T03:38:18.752Z,89.54
2019-04-07T03:39:17.140Z,90.06
2019-04-07T03:40:16.739Z,90.26
2019-04-07T03:41:16.728Z,90.26
2019-04-07T03:42:17.823Z,90.47
2019-04-07T03:43:17.644Z,90.67
2019-04-07T03:44:16.697Z,90.88
2019-04-07T03:45:16.683Z,89.85
2019-04-07T03:46:17.234Z,90.67
2019-04-07T03:47:16.663Z,90.26
2019-04-07T03:48:16.665Z,90.26
2019-04-07T03:49:16.992Z,89.44
2019-04-07T03:50:16.656Z,89.64
2019-04-07T03:51:17.204Z,89.95
2019-04-07T03:52:17.069Z,90.16
2019-04-07T03:53:16.598Z,90.26
2019-04-07T03:54:16.714Z,89.95
2019-04-07T03:55:17.187Z,89.95
2019-04-07T03:56:16.598Z,90.16
2019-04-07T03:57:16.701Z,89.13
2019-04-07T03:58:16.538Z,89.23
2019-04-07T03:59:16.537Z,90.06
2019-04-07T04:00:16.843Z,89.95
2019-04-07T04:01:16.569Z,90.06
2019-04-07T04:02:17.486Z,89.75
2019-04-07T04:03:16.978Z,90.06
2019-04-07T04:04:16.484Z,89.75
2019-04-07T04:05:16.463Z,89.75
2019-04-07T04:06:17.333Z,89.75
2019-04-07T04:07:25.805Z,89.44
2019-04-07T04:08:18.326Z,89.85
2019-04-07T04:09:17.246Z,89.85
2019-04-07T04:10:17.349Z,89.95
2019-04-07T04:11:16.392Z,89.64
2019-04-07T04:12:17.127Z,89.75
2019-04-07T04:13:16.590Z,89.54
2019-04-07T04:14:16.574Z,89.54
2019-04-07T04:15:16.848Z,89.23
2019-04-07T04:16:16.338Z,89.13
2019-04-07T04:17:16.554Z,88.82
2019-04-07T04:18:16.325Z,89.34
2019-04-07T04:19:16.313Z,89.64
2019-04-07T04:20:16.321Z,88.92
2019-04-07T04:21:16.438Z,88.72
2019-04-07T04:22:16.352Z,89.64
2019-04-07T04:23:16.259Z,89.13
2019-04-07T04:24:16.758Z,89.03
2019-04-07T04:25:17.166Z,89.34
2019-04-07T04:26:17.490Z,89.13
2019-04-07T04:27:16.927Z,89.44
2019-04-07T04:28:16.400Z,88.92
2019-04-07T04:29:17.046Z,88.92
2019-04-07T04:30:16.882Z,89.44
2019-04-07T04:31:16.172Z,89.34
2019-04-07T04:32:16.696Z,88.62
2019-04-07T04:33:16.153Z,88.62
2019-04-07T04:34:16.413Z,88.86
2019-04-07T04:35:17.011Z,89.03
2019-04-07T04:36:16.115Z,88.96
2019-04-07T04:37:21.426Z,89.03
2019-04-07T04:38:17.799Z,88.96
2019-04-07T04:39:18.694Z,88.92
2019-04-07T04:40:16.177Z,89.13
2019-04-07T04:41:16.865Z,88.76
2019-04-07T04:42:16.212Z,88.66
2019-04-07T04:43:16.049Z,88.41
2019-04-07T04:44:16.506Z,88.86
2019-04-07T04:45:16.043Z,88.96
2019-04-07T04:46:16.975Z,88.76
2019-04-07T04:47:16.702Z,88.66
2019-04-07T04:49:50.288Z,89.01
2019-04-07T04:50:25.834Z,88.76
2019-04-07T04:51:24.794Z,88.76
2019-04-07T04:52:24.759Z,88.80
2019-04-07T04:53:24.750Z,88.86
2019-04-07T04:54:25.759Z,88.70
2019-04-07T04:55:25.468Z,89.01
2019-04-07T04:56:24.713Z,88.90
2019-04-07T04:57:25.193Z,88.80
2019-04-07T04:58:24.787Z,88.90
2019-04-07T04:59:25.598Z,88.80
2019-04-07T05:00:24.678Z,88.70
2019-04-07T05:01:25.285Z,88.80
2019-04-07T05:02:24.647Z,88.80
2019-04-07T05:03:24.968Z,88.90
2019-04-07T05:04:24.625Z,88.90
2019-04-07T05:05:25.522Z,88.70
2019-04-07T05:06:25.227Z,88.80
2019-04-07T05:07:24.595Z,88.80
2019-04-07T05:08:24.722Z,89.01
2019-04-07T05:09:25.424Z,88.70
2019-04-07T05:10:24.893Z,88.49
2019-04-07T05:11:24.814Z,88.70
2019-04-07T05:12:24.533Z,89.01
2019-04-07T05:13:25.063Z,88.39
2019-04-07T05:14:25.760Z,88.80
2019-04-07T05:15:24.506Z,88.90
2019-04-07T05:16:24.487Z,89.22
2019-04-07T05:17:24.477Z,89.11
2019-04-07T05:18:24.467Z,89.22
2019-04-07T05:19:24.455Z,88.84
2019-04-07T05:20:25.177Z,89.05
2019-04-07T05:21:25.023Z,88.84
2019-04-07T05:22:24.427Z,89.01
2019-04-07T05:23:24.588Z,88.80
2019-04-07T05:24:24.767Z,88.70
2019-04-07T05:25:24.951Z,88.80
2019-04-07T05:26:24.382Z,88.70
2019-04-07T05:27:25.083Z,89.15
2019-04-07T05:28:24.462Z,88.80
2019-04-07T05:29:24.747Z,88.59
2019-04-07T05:30:24.328Z,88.59
2019-04-07T05:31:24.648Z,87.87
2019-04-07T05:32:24.485Z,88.08
2019-04-07T05:33:24.511Z,87.87
2019-04-07T05:34:24.284Z,88.08
2019-04-07T05:35:24.851Z,88.08
2019-04-07T05:36:25.174Z,87.63
2019-04-07T05:37:24.250Z,88.45
2019-04-07T05:38:24.237Z,87.84
2019-04-07T05:39:24.224Z,87.63
2019-04-07T05:40:24.554Z,87.73
2019-04-07T05:41:24.214Z,87.52
2019-04-07T05:42:24.658Z,87.32
2019-04-07T05:43:24.181Z,87.49
2019-04-07T05:44:24.469Z,87.90
2019-04-07T05:45:25.310Z,87.18
2019-04-07T05:46:24.156Z,87.18
2019-04-07T05:47:24.137Z,87.18
2019-04-07T05:48:24.788Z,86.97
2019-04-07T05:49:24.363Z,87.49
2019-04-07T05:50:26.797Z,87.24
2019-04-07T05:51:24.098Z,87.18
2019-04-07T05:52:24.081Z,86.15
2019-04-07T05:53:24.402Z,86.21
2019-04-07T05:54:24.120Z,86.32
2019-04-07T05:55:24.456Z,86.21
2019-04-07T05:56:27.608Z,85.80
2019-04-07T05:57:24.077Z,85.76
2019-04-07T05:58:24.311Z,86.27
2019-04-07T05:59:23.999Z,85.25
2019-04-07T06:00:24.005Z,85.46
2019-04-07T06:01:24.612Z,85.62
2019-04-07T06:02:24.457Z,84.80
2019-04-07T06:03:23.952Z,85.17
2019-04-07T06:04:23.949Z,84.00
2019-04-07T06:05:24.460Z,83.49
2019-04-07T06:06:23.931Z,82.28
2019-04-07T06:07:28.824Z,81.67
2019-04-07T06:08:32.634Z,82.24
2019-04-07T06:09:25.121Z,80.98
2019-04-07T06:10:27.754Z,80.36
2019-04-07T06:11:24.872Z,79.85
2019-04-07T06:12:23.852Z,79.20
2019-04-07T06:13:23.842Z,79.41
2019-04-07T06:14:24.443Z,79.10
2019-04-07T06:15:23.817Z,78.55
2019-04-07T06:16:23.815Z,78.34
2019-04-07T06:17:26.375Z,78.34
2019-04-07T06:18:23.957Z,78.34
2019-04-07T06:19:23.894Z,78.55
2019-04-07T06:20:23.760Z,78.65
2019-04-07T06:21:24.245Z,78.04
2019-04-07T06:22:23.738Z,78.00
2019-04-07T06:23:25.824Z,78.04
2019-04-07T06:24:24.356Z,78.14
2019-04-07T06:25:23.705Z,77.94
2019-04-07T06:26:23.693Z,78.65
2019-04-07T06:27:24.038Z,78.55
2019-04-07T06:28:23.826Z,78.34
2019-04-07T06:29:26.126Z,78.14
2019-04-07T06:30:24.062Z,78.24
2019-04-07T06:31:25.836Z,78.34
2019-04-07T06:32:24.392Z,79.27
2019-04-07T06:33:23.664Z,78.86
2019-04-07T06:34:23.779Z,78.86
2019-04-07T06:35:23.592Z,79.71
2019-04-07T06:36:26.107Z,79.20
2019-04-07T06:37:28.815Z,79.50
2019-04-07T06:38:31.172Z,79.10
2019-04-07T06:39:24.544Z,79.91
2019-04-07T06:40:24.230Z,79.82
2019-04-07T06:41:27.039Z,80.22
2019-04-07T06:42:24.164Z,79.91
2019-04-07T06:43:23.501Z,79.71
2019-04-07T06:44:24.223Z,79.37
2019-04-07T06:45:24.418Z,79.06
2019-04-07T06:46:27.628Z,79.57
2019-04-07T06:47:24.958Z,79.37
2019-04-07T06:48:23.443Z,79.06
2019-04-07T06:49:27.347Z,78.75
2019-04-07T06:50:23.420Z,78.45
2019-04-07T06:51:24.002Z,78.65
2019-04-07T06:52:23.873Z,78.75
2019-04-07T06:53:23.540Z,78.61
2019-04-07T06:54:23.379Z,78.75
2019-04-07T06:55:26.529Z,79.13
2019-04-07T06:56:23.352Z,79.23
2019-04-07T06:57:23.403Z,77.76
2019-04-07T06:58:23.330Z,77.70
2019-04-07T06:59:23.316Z,77.86
2019-04-07T07:00:25.520Z,77.76
2019-04-07T07:01:25.773Z,77.22
2019-04-07T07:02:23.912Z,77.31
2019-04-07T07:03:23.785Z,76.81
2019-04-07T07:04:23.275Z,76.29
2019-04-07T07:05:23.607Z,75.95
2019-04-07T07:06:23.296Z,75.65
2019-04-07T07:07:23.229Z,75.44
2019-04-07T07:08:23.563Z,75.10
2019-04-07T07:09:25.707Z,75.07
2019-04-07T07:14:32.930Z,72.65
2019-04-07T07:14:50.837Z,72.65
2019-04-07T07:15:49.605Z,72.38
2019-04-07T07:16:49.964Z,72.38
2019-04-07T07:17:50.774Z,72.99
2019-04-07T07:18:53.619Z,72.62
2019-04-07T07:19:49.846Z,72.62
2019-04-07T07:20:49.527Z,73.03
2019-04-07T07:21:50.152Z,73.03
2019-04-07T07:22:49.677Z,73.03
2019-04-07T07:23:50.041Z,72.99
2019-04-07T07:24:50.250Z,72.89
2019-04-07T07:25:50.524Z,72.79
2019-04-07T07:26:49.548Z,72.48
2019-04-07T07:27:49.455Z,72.38
2019-04-07T07:28:49.436Z,72.04
2019-04-07T07:29:52.558Z,71.84
2019-04-07T07:30:51.803Z,72.24
2019-04-07T07:31:51.832Z,71.94
2019-04-07T07:32:49.769Z,71.43
2019-04-07T07:33:49.619Z,72.14
2019-04-07T07:34:49.784Z,71.60
2019-04-07T07:35:49.431Z,72.34
2019-04-07T07:36:52.278Z,71.73
2019-04-07T07:37:50.992Z,72.14
2019-04-07T07:38:58.275Z,71.50
2019-04-07T07:39:50.824Z,71.19
2019-04-07T07:40:50.017Z,71.09
2019-04-07T07:41:51.663Z,70.99
2019-04-07T07:42:50.950Z,70.38
2019-04-07T07:43:49.278Z,70.68
2019-04-07T07:44:49.311Z,70.65
2019-04-07T07:45:50.083Z,70.75
2019-04-07T07:46:50.872Z,70.14
2019-04-07T07:47:53.270Z,70.65
2019-04-07T07:48:49.982Z,70.78
2019-04-07T07:49:49.768Z,70.89
2019-04-07T07:50:49.188Z,70.89
2019-04-07T07:51:49.176Z,71.26
2019-04-07T07:52:51.544Z,71.36
2019-04-07T07:53:49.162Z,71.36
2019-04-07T07:54:49.565Z,71.56
2019-04-07T07:55:49.711Z,70.92
2019-04-07T07:56:51.156Z,71.12
2019-04-07T07:57:49.239Z,70.07
2019-04-07T07:58:49.333Z,69.16
2019-04-07T07:59:49.805Z,69.46
2019-04-07T08:00:49.095Z,68.52
2019-04-07T08:01:51.145Z,68.62
2019-04-07T08:02:51.599Z,68.62
2019-04-07T08:03:51.739Z,68.62
2019-04-07T08:04:49.030Z,67.57
2019-04-07T08:05:49.021Z,67.47
2019-04-07T08:06:49.016Z,68.28
2019-04-07T08:07:50.175Z,67.47
2019-04-07T08:08:48.994Z,67.33
2019-04-07T08:09:49.171Z,67.84
2019-04-07T08:10:48.976Z,68.55
2019-04-07T08:11:49.042Z,66.39
2019-04-07T08:12:49.649Z,66.52
2019-04-07T08:13:48.938Z,66.69
2019-04-07T08:14:52.167Z,65.58
2019-04-07T08:15:50.373Z,65.58
2019-04-07T08:16:49.086Z,65.48
2019-04-07T08:17:48.885Z,64.87
2019-04-07T08:18:48.900Z,65.45
2019-04-07T08:19:48.863Z,65.55
2019-04-07T08:20:49.063Z,65.24
2019-04-07T08:21:51.213Z,65.34
2019-04-07T08:22:49.341Z,65.55
2019-04-07T08:23:49.173Z,65.11
2019-04-07T08:24:51.141Z,65.11
2019-04-07T08:25:48.956Z,64.81
2019-04-07T08:26:48.914Z,64.20
2019-04-07T08:27:48.801Z,64.00
2019-04-07T08:28:49.331Z,63.66
2019-04-07T08:29:48.763Z,63.06
2019-04-07T08:30:49.102Z,63.76
2019-04-07T08:31:51.495Z,63.93
2019-04-07T08:32:50.077Z,63.60
2019-04-07T08:33:51.245Z,63.67
2019-04-07T08:34:49.297Z,63.13
2019-04-07T08:35:49.076Z,61.72
2019-04-07T08:36:49.457Z,61.99
2019-04-07T08:37:49.200Z,61.76
2019-04-07T08:38:51.797Z,59.61
2019-04-07T08:39:49.726Z,60.32
2019-04-07T08:40:49.118Z,60.09
2019-04-07T08:41:48.625Z,59.78
2019-04-07T08:42:50.170Z,57.94
2019-04-07T08:43:53.270Z,57.91
2019-04-07T08:44:49.780Z,57.71
2019-04-07T08:45:48.579Z,55.97
2019-04-07T08:46:48.573Z,56.48
2019-04-07T08:47:50.005Z,55.94
2019-04-07T08:48:51.027Z,54.53
2019-04-07T08:49:48.540Z,54.21
2019-04-07T08:50:48.629Z,55.29
2019-04-07T08:51:48.509Z,56.77
2019-04-07T08:52:48.503Z,57.07
2019-04-07T08:53:48.488Z,56.04
2019-04-07T08:54:51.362Z,54.93
2019-04-07T08:55:49.921Z,53.20
2019-04-07T08:56:48.678Z,53.00
2019-04-07T08:57:48.440Z,52.26
2019-04-07T08:58:49.069Z,51.66
2019-04-07T08:59:48.432Z,51.06
2019-04-07T09:00:50.995Z,53.17
2019-04-07T09:01:51.730Z,53.37
2019-04-07T09:03:00.215Z,54.15
2019-04-07T09:03:49.675Z,50.33
2019-04-07T09:04:51.287Z,50.13
2019-04-07T09:05:48.360Z,51.74
2019-04-07T09:06:48.854Z,50.79
2019-04-07T09:07:48.331Z,50.48
2019-04-07T09:08:48.318Z,48.25
2019-04-07T09:09:49.145Z,48.55
2019-04-07T09:10:49.526Z,48.46
2019-04-07T09:11:52.921Z,48.51
2019-04-07T09:12:49.933Z,46.68
2019-04-07T09:13:48.673Z,47.86
2019-04-07T09:14:49.147Z,46.54
2019-04-07T09:15:49.667Z,46.92
2019-04-07T09:16:52.744Z,46.59
2019-04-07T09:17:49.643Z,46.30
2019-04-07T09:18:54.308Z,45.17
2019-04-07T09:19:50.834Z,45.15
2019-04-07T09:20:49.407Z,45.03
2019-04-07T09:21:50.242Z,44.23
2019-04-07T09:22:51.569Z,43.93
2019-04-07T09:23:48.977Z,45.71
2019-04-07T09:24:48.320Z,46.38
2019-04-07T09:25:48.146Z,44.76
2019-04-07T09:26:48.150Z,43.55
2019-04-07T09:27:49.843Z,42.53
2019-04-07T09:28:48.736Z,41.24
2019-04-07T09:29:48.774Z,43.52
2019-04-07T09:30:48.335Z,41.63
2019-04-07T09:31:48.181Z,40.64
2019-04-07T09:32:48.619Z,41.66
2019-04-07T09:33:49.069Z,41.16
2019-04-07T09:34:50.601Z,42.63
2019-04-07T09:35:48.670Z,41.71
2019-04-07T09:36:50.361Z,40.40
2019-04-07T09:37:48.219Z,39.18
2019-04-07T09:38:50.177Z,40.58
2019-04-07T09:39:56.900Z,41.28
2019-04-07T09:40:48.970Z,39.27
2019-04-07T09:41:48.580Z,38.99
2019-04-07T09:42:47.948Z,39.18
2019-04-07T09:43:48.473Z,39.70
2019-04-07T09:44:47.927Z,40.80
2019-04-07T09:45:48.008Z,41.89
2019-04-07T09:46:50.274Z,40.88
2019-04-07T09:47:48.689Z,41.04
2019-04-07T09:48:50.997Z,39.43
2019-04-07T09:49:49.145Z,38.24
2019-04-07T09:50:48.175Z,39.11
2019-04-07T09:51:47.862Z,38.14
2019-04-07T09:52:49.181Z,37.98
2019-04-07T09:53:50.219Z,37.92
2019-04-07T09:54:51.692Z,39.42
2019-04-07T09:55:49.038Z,39.53
2019-04-07T09:56:47.811Z,39.74
2019-04-07T09:57:50.307Z,39.86
2019-04-07T09:58:47.786Z,41.83
2019-04-07T09:59:50.850Z,40.74
2019-04-07T10:00:47.834Z,40.26
2019-04-07T10:01:47.753Z,41.14
2019-04-07T10:02:48.060Z,41.03
2019-04-07T10:03:47.723Z,41.71
2019-04-07T10:04:47.711Z,37.79
2019-04-07T10:05:47.701Z,38.37
2019-04-07T10:06:49.551Z,36.75
2019-04-07T10:07:47.910Z,36.83
2019-04-07T10:08:47.820Z,36.51
2019-04-07T10:09:47.662Z,36.75
2019-04-07T10:10:48.286Z,37.08
2019-04-07T10:11:47.648Z,38.20
2019-04-07T10:12:47.628Z,39.39
2019-04-07T10:13:47.618Z,37.68
2019-04-07T10:14:47.606Z,37.79
2019-04-07T10:15:47.594Z,38.37
2019-04-07T10:16:48.367Z,38.34
2019-04-07T10:17:47.574Z,36.53
2019-04-07T10:18:47.563Z,34.13
2019-04-07T10:19:47.736Z,34.52
2019-04-07T10:20:47.544Z,33.00
2019-04-07T10:21:47.592Z,33.09
2019-04-07T10:22:48.379Z,31.69
2019-04-07T10:23:49.700Z,32.48
2019-04-07T10:24:48.272Z,31.69
2019-04-07T10:25:47.490Z,31.99
2019-04-07T10:26:47.482Z,32.17
2019-04-07T10:27:47.478Z,33.04
2019-04-07T10:28:49.453Z,32.46
2019-04-07T10:29:48.130Z,31.77
2019-04-07T10:30:47.438Z,31.18
2019-04-07T10:31:47.549Z,32.55
2019-04-07T10:32:47.425Z,31.66
2019-04-07T10:33:48.160Z,31.79
2019-04-07T10:34:47.395Z,32.40
2019-04-07T10:35:47.767Z,33.09
2019-04-07T10:36:47.573Z,32.18
2019-04-07T10:37:50.237Z,32.09
2019-04-07T10:38:48.123Z,30.29
2019-04-07T10:39:47.344Z,29.99
2019-04-07T10:40:47.338Z,30.50
2019-04-07T10:41:47.636Z,31.20
2019-04-07T10:42:47.328Z,30.41
2019-04-07T10:43:47.813Z,31.88
2019-04-07T10:44:47.930Z,31.79
2019-04-07T10:45:47.281Z,31.38
2019-04-07T10:46:47.855Z,31.66
2019-04-07T10:47:47.274Z,31.25
2019-04-07T10:48:47.774Z,31.15
2019-04-07T10:49:57.967Z,30.85
2019-04-07T10:50:49.202Z,29.27
2019-04-07T10:51:47.715Z,30.24
2019-04-07T10:52:47.212Z,30.15
2019-04-07T10:53:47.300Z,29.24
2019-04-07T10:54:47.311Z,29.44
2019-04-07T10:55:47.180Z,29.24
2019-04-07T10:56:47.954Z,30.04
2019-04-07T10:57:47.156Z,29.64
2019-04-07T10:58:47.244Z,29.46
2019-04-07T10:59:47.466Z,29.37
2019-04-07T11:00:49.461Z,31.12
2019-04-07T11:01:47.190Z,29.54
2019-04-07T11:02:47.880Z,29.92
2019-04-07T11:03:47.103Z,29.92
2019-04-07T11:04:47.426Z,28.64
2019-04-07T11:05:47.074Z,28.53
2019-04-07T11:06:47.064Z,28.62
2019-04-07T11:07:47.053Z,28.53
2019-04-07T11:08:47.653Z,29.23
2019-04-07T11:09:47.530Z,28.44
2019-04-07T11:10:47.024Z,27.75
2019-04-07T11:11:49.075Z,26.76
2019-04-07T11:12:47.002Z,27.35
2019-04-07T11:13:47.050Z,28.16
2019-04-07T11:14:46.988Z,27.96
2019-04-07T11:15:47.670Z,28.45
2019-04-07T11:16:47.042Z,28.64
2019-04-07T11:17:47.260Z,28.53
2019-04-07T11:18:46.951Z,28.44
2019-04-07T11:19:47.733Z,28.03
2019-04-07T11:20:47.253Z,27.64
2019-04-07T11:21:46.911Z,27.23
2019-04-07T11:22:46.900Z,26.36
2019-04-07T11:23:46.966Z,27.84
2019-04-07T11:24:46.992Z,27.73
2019-04-07T11:25:47.784Z,27.14
2019-04-07T11:26:47.481Z,26.75
2019-04-07T11:27:46.872Z,27.47
2019-04-07T11:28:46.941Z,27.64
2019-04-07T11:29:46.829Z,26.04
2019-04-07T11:30:47.330Z,26.04
2019-04-07T11:31:46.810Z,26.64
2019-04-07T11:32:47.755Z,27.13
2019-04-07T11:33:47.034Z,26.93
2019-04-07T11:34:46.794Z,26.62
2019-04-07T11:35:47.545Z,25.65
2019-04-07T11:36:46.766Z,26.03
2019-04-07T11:37:47.339Z,26.62
2019-04-07T11:38:46.744Z,26.51
2019-04-07T11:39:46.759Z,26.31
2019-04-07T11:40:49.968Z,24.93
2019-04-07T11:41:47.184Z,25.23
2019-04-07T11:42:46.698Z,25.03
2019-04-07T11:43:46.859Z,25.63
2019-04-07T11:44:46.816Z,25.14
2019-04-07T11:45:56.107Z,26.62
2019-04-07T11:46:48.370Z,26.42
2019-04-07T11:47:47.067Z,26.92
2019-04-07T11:48:46.847Z,25.83
2019-04-07T11:49:46.636Z,25.83
2019-04-07T11:50:47.215Z,26.24
2019-04-07T11:51:46.802Z,26.56
2019-04-07T11:52:47.253Z,26.87
2019-04-07T11:53:46.613Z,27.38
2019-04-07T11:54:46.584Z,26.89
2019-04-07T11:55:47.281Z,27.87
2019-04-07T11:56:47.214Z,27.58
2019-04-07T11:57:47.159Z,27.76
2019-04-07T11:58:46.542Z,27.75
2019-04-07T11:59:46.597Z,26.26
2019-04-07T12:00:47.288Z,26.86
2019-04-07T12:01:49.516Z,26.46
2019-04-07T12:02:46.946Z,27.14
2019-04-07T12:03:46.499Z,26.46
2019-04-07T12:04:46.883Z,26.17
2019-04-07T12:05:46.472Z,25.87
2019-04-07T12:06:48.160Z,26.07
2019-04-07T12:07:46.445Z,26.55
2019-04-07T12:08:46.764Z,26.46
2019-04-07T12:09:46.754Z,26.86
2019-04-07T12:10:56.235Z,26.84
2019-04-07T12:11:48.161Z,26.18
2019-04-07T12:12:47.257Z,27.66
2019-04-07T12:13:46.764Z,27.49
2019-04-07T12:14:50.022Z,28.00
2019-04-07T12:15:47.362Z,28.32
2019-04-07T12:16:46.359Z,28.64
2019-04-07T12:17:46.343Z,29.07
2019-04-07T12:18:49.363Z,30.68
2019-04-07T12:19:46.556Z,29.57
2019-04-07T12:20:47.161Z,30.36
2019-04-07T12:21:46.997Z,29.94
2019-04-07T12:22:47.983Z,29.32
2019-04-07T12:23:46.510Z,28.61
2019-04-07T12:24:46.276Z,28.52
2019-04-07T12:25:47.137Z,28.70
2019-04-07T12:26:46.346Z,27.29
2019-04-07T12:27:47.119Z,27.18
2019-04-07T12:28:49.092Z,27.17
2019-04-07T12:29:47.133Z,26.97
2019-04-07T12:30:46.994Z,26.96
2019-04-07T12:31:46.667Z,26.86
2019-04-07T12:32:46.646Z,26.94
2019-04-07T12:33:46.173Z,26.83
2019-04-07T12:34:47.735Z,26.93
2019-04-07T12:35:50.926Z,26.82
2019-04-07T12:36:47.642Z,26.72
2019-04-07T12:37:46.660Z,26.03
2019-04-07T12:38:46.272Z,26.61
2019-04-07T12:39:48.792Z,25.61
2019-04-07T12:40:46.237Z,25.89
2019-04-07T12:41:46.093Z,25.79
2019-04-07T12:42:46.084Z,25.71
2019-04-07T12:43:49.262Z,26.30
2019-04-07T12:44:46.372Z,25.02
2019-04-07T12:45:46.766Z,26.21
2019-04-07T12:46:46.483Z,26.23
2019-04-07T12:47:46.027Z,26.62
2019-04-07T12:48:46.882Z,26.23
2019-04-07T12:49:46.917Z,25.73
2019-04-07T12:50:48.908Z,25.83
2019-04-07T12:51:46.132Z,26.32
2019-04-07T12:52:46.273Z,25.83
2019-04-07T12:53:45.963Z,25.44
2019-04-07T12:54:46.092Z,25.44
2019-04-07T12:55:53.464Z,25.44
2019-04-07T12:56:47.767Z,25.34